sensor_id;sensor_type;location;lat;lon;timestamp;P1;durP1;ratioP1;P2;durP2;ratioP2
7883;SDS011;3987;51.458;7.238;2023-02-28T00:08:49;6.10;;;5.10;;
7883;SDS011;3987;51.458;7.238;2023-02-28T00:23:50;5.87;;;5.47;;
7883;SDS011;3987;51.458;7.238;2023-02-28T00:38:50;5.40;;;5.10;;
7883;SDS011;3987;51.458;7.238;2023-02-28T00:53:51;6.10;;;5.83;;
7883;SDS011;3987;51.458;7.238;2023-02-28T01:08:51;5.97;;;5.37;;
7883;SDS011;3987;51.458;7.238;2023-02-28T01:23:52;5.35;;;5.15;;
7883;SDS011;3987;51.458;7.238;2023-02-28T01:38:53;4.20;;;4.10;;
7883;SDS011;3987;51.458;7.238;2023-02-28T01:53:55;5.80;;;5.40;;
7883;SDS011;3987;51.458;7.238;2023-02-28T02:40:27;4.90;;;4.70;;
7883;SDS011;3987;51.458;7.238;2023-02-28T02:55:33;5.73;;;5.30;;
7883;SDS011;3987;51.458;7.238;2023-02-28T03:10:39;5.20;;;4.90;;
7883;SDS011;3987;51.458;7.238;2023-02-28T03:25:58;5.63;;;5.13;;
7883;SDS011;3987;51.458;7.238;2023-02-28T03:56:27;5.27;;;5.17;;
7883;SDS011;3987;51.458;7.238;2023-02-28T04:11:39;6.03;;;5.70;;
7883;SDS011;3987;51.458;7.238;2023-02-28T04:26:41;5.00;;;4.83;;
7883;SDS011;3987;51.458;7.238;2023-02-28T04:41:44;5.13;;;4.93;;
7883;SDS011;3987;51.458;7.238;2023-02-28T04:56:45;5.77;;;5.47;;
7883;SDS011;3987;51.458;7.238;2023-02-28T05:11:45;4.97;;;4.67;;
7883;SDS011;3987;51.458;7.238;2023-02-28T05:26:45;5.33;;;5.00;;
7883;SDS011;3987;51.458;7.238;2023-02-28T05:41:46;5.13;;;4.93;;
7883;SDS011;3987;51.458;7.238;2023-02-28T05:56:46;6.97;;;6.07;;
7883;SDS011;3987;51.458;7.238;2023-02-28T06:11:47;6.63;;;6.23;;
7883;SDS011;3987;51.458;7.238;2023-02-28T06:26:47;6.23;;;6.00;;
7883;SDS011;3987;51.458;7.238;2023-02-28T06:41:48;6.80;;;6.30;;
7883;SDS011;3987;51.458;7.238;2023-02-28T06:56:48;5.93;;;5.63;;
7883;SDS011;3987;51.458;7.238;2023-02-28T07:11:48;6.63;;;6.33;;
7883;SDS011;3987;51.458;7.238;2023-02-28T07:26:49;7.13;;;6.53;;
7883;SDS011;3987;51.458;7.238;2023-02-28T07:41:49;7.87;;;7.17;;
7883;SDS011;3987;51.458;7.238;2023-02-28T07:56:50;9.27;;;7.23;;
7883;SDS011;3987;51.458;7.238;2023-02-28T08:11:50;7.10;;;6.80;;
7883;SDS011;3987;51.458;7.238;2023-02-28T08:26:50;6.37;;;5.93;;
7883;SDS011;3987;51.458;7.238;2023-02-28T08:41:51;5.70;;;5.43;;
7883;SDS011;3987;51.458;7.238;2023-02-28T08:56:51;5.40;;;5.10;;
7883;SDS011;3987;51.458;7.238;2023-02-28T09:11:52;5.67;;;5.37;;
7883;SDS011;3987;51.458;7.238;2023-02-28T09:26:52;5.03;;;4.60;;
7883;SDS011;3987;51.458;7.238;2023-02-28T09:41:52;4.00;;;3.87;;
7883;SDS011;3987;51.458;7.238;2023-02-28T09:57:08;2.77;;;2.67;;
7883;SDS011;3987;51.458;7.238;2023-02-28T10:12:29;2.97;;;2.37;;
7883;SDS011;3987;51.458;7.238;2023-02-28T10:27:32;2.60;;;2.57;;
7883;SDS011;3987;51.458;7.238;2023-02-28T10:42:32;2.10;;;2.10;;
7883;SDS011;3987;51.458;7.238;2023-02-28T10:57:33;2.13;;;2.13;;
7883;SDS011;3987;51.458;7.238;2023-02-28T11:57:53;1.90;;;1.90;;
7883;SDS011;3987;51.458;7.238;2023-02-28T12:28:12;2.40;;;2.40;;
7883;SDS011;3987;51.458;7.238;2023-02-28T12:43:15;2.70;;;2.50;;
7883;SDS011;3987;51.458;7.238;2023-02-28T12:58:22;2.73;;;2.63;;
7883;SDS011;3987;51.458;7.238;2023-02-28T13:13:28;2.60;;;2.60;;
7883;SDS011;3987;51.458;7.238;2023-02-28T14:44:53;3.10;;;3.00;;
7883;SDS011;3987;51.458;7.238;2023-02-28T14:59:59;3.17;;;3.07;;
7883;SDS011;3987;51.458;7.238;2023-02-28T15:15:06;6.33;;;3.60;;
7883;SDS011;3987;51.458;7.238;2023-02-28T15:30:17;3.37;;;3.17;;
7883;SDS011;3987;51.458;7.238;2023-02-28T15:45:26;4.03;;;3.93;;
7883;SDS011;3987;51.458;7.238;2023-02-28T16:00:29;4.17;;;4.00;;
7883;SDS011;3987;51.458;7.238;2023-02-28T16:15:31;4.77;;;4.57;;
7883;SDS011;3987;51.458;7.238;2023-02-28T16:30:41;4.23;;;4.13;;
7883;SDS011;3987;51.458;7.238;2023-02-28T16:45:41;4.40;;;4.17;;
7883;SDS011;3987;51.458;7.238;2023-02-28T17:00:42;4.73;;;4.53;;
7883;SDS011;3987;51.458;7.238;2023-02-28T17:15:43;4.27;;;4.13;;
7883;SDS011;3987;51.458;7.238;2023-02-28T17:30:46;4.77;;;4.60;;
7883;SDS011;3987;51.458;7.238;2023-02-28T17:45:47;5.03;;;4.63;;
7883;SDS011;3987;51.458;7.238;2023-02-28T18:00:48;5.53;;;5.13;;
7883;SDS011;3987;51.458;7.238;2023-02-28T18:15:53;5.23;;;4.70;;
7883;SDS011;3987;51.458;7.238;2023-02-28T18:30:54;5.37;;;5.13;;
7883;SDS011;3987;51.458;7.238;2023-02-28T18:45:54;8.40;;;6.70;;
7883;SDS011;3987;51.458;7.238;2023-02-28T19:00:55;5.43;;;5.23;;
7883;SDS011;3987;51.458;7.238;2023-02-28T19:15:59;6.50;;;6.20;;
7883;SDS011;3987;51.458;7.238;2023-02-28T19:31:04;7.93;;;7.03;;
7883;SDS011;3987;51.458;7.238;2023-02-28T19:46:04;8.50;;;7.73;;
7883;SDS011;3987;51.458;7.238;2023-02-28T20:01:07;8.27;;;7.63;;
7883;SDS011;3987;51.458;7.238;2023-02-28T20:16:08;10.27;;;9.37;;
7883;SDS011;3987;51.458;7.238;2023-02-28T20:31:10;10.30;;;9.50;;
7883;SDS011;3987;51.458;7.238;2023-02-28T20:46:12;11.43;;;10.47;;
7883;SDS011;3987;51.458;7.238;2023-02-28T21:16:17;11.87;;;10.87;;
7883;SDS011;3987;51.458;7.238;2023-02-28T21:31:20;12.83;;;11.07;;
7883;SDS011;3987;51.458;7.238;2023-02-28T21:46:23;15.60;;;11.93;;
7883;SDS011;3987;51.458;7.238;2023-02-28T22:01:26;19.07;;;12.57;;
7883;SDS011;3987;51.458;7.238;2023-02-28T22:16:30;14.73;;;13.00;;
7883;SDS011;3987;51.458;7.238;2023-02-28T22:31:32;13.50;;;12.13;;
7883;SDS011;3987;51.458;7.238;2023-02-28T22:46:33;14.13;;;12.67;;
7883;SDS011;3987;51.458;7.238;2023-02-28T23:01:34;13.40;;;12.40;;
7883;SDS011;3987;51.458;7.238;2023-02-28T23:16:39;14.60;;;12.57;;
7883;SDS011;3987;51.458;7.238;2023-02-28T23:31:45;14.40;;;13.20;;
7883;SDS011;3987;51.458;7.238;2023-02-28T23:46:46;14.60;;;13.10;;
